This is the latest recevied weather packets stored in our database for station/object NN3A-3. If no packets are shown the sender has not sent any weather packets the latest 10 day(s).
| Time | Temp. | Humidity | Pressure | Rain* | Wind** | Luminosity | Snow |
|---|---|---|---|---|---|---|---|
| 1777647361 | 12.22° C | 73% | 1012.7 hPa | 0 mm | - | - | - |
| 1777647062 | 12.78° C | 73% | 1012.7 hPa | 0 mm | - | - | - |
| 1777646762 | 12.78° C | 73% | 1012.7 hPa | 0 mm | - | - | - |
| 1777646162 | 11.67° C | 75% | 1012.7 hPa | 0 mm | - | - | - |
| 1777645862 | 12.22° C | 75% | 1012.7 hPa | 0 mm | - | - | - |
| 1777645562 | 12.22° C | 76% | 1012.7 hPa | 0 mm | - | - | - |
| 1777645262 | 11.11° C | 79% | 1012.7 hPa | 0 mm | - | - | - |
| 1777644963 | 12.22° C | 79% | 1012.7 hPa | 0 mm | - | - | - |
| 1777644662 | 11.67° C | 80% | 1012.7 hPa | 0 mm | - | - | - |
| 1777644064 | 11.11° C | 85% | 1013 hPa | 0 mm | - | - | - |
| 1777643763 | 11.67° C | 83% | 1013 hPa | 0 mm | - | - | - |
| 1777643463 | 11.11° C | 87% | 1013 hPa | 0 mm | - | - | - |
| 1777643164 | 10° C | 88% | 1013 hPa | 0 mm | - | - | - |
| 1777642564 | 10° C | 89% | 1013 hPa | 0 mm | - | - | - |
| 1777642265 | 9.44° C | 89% | 1013 hPa | 0 mm | - | - | - |
| 1777641964 | 9.44° C | 89% | 1013 hPa | 0 mm | - | - | - |
| 1777641665 | 9.44° C | 90% | 1013 hPa | 0 mm | - | - | - |
| 1777641364 | 9.44° C | 89% | 1013.3 hPa | 0 mm | - | - | - |
| 1777640764 | 10° C | 88% | 1013.3 hPa | 0 mm | - | - | - |
| 1777640465 | 8.89° C | 89% | 1013.7 hPa | 0 mm | - | - | - |
| 1777640165 | 9.44° C | 90% | 1013.7 hPa | 0 mm | - | - | - |
| 1777639865 | 9.44° C | 89% | 1013.7 hPa | 0 mm | - | - | - |
| 1777639565 | 9.44° C | 90% | 1013.7 hPa | 0 mm | - | - | - |
| 1777638966 | 8.89° C | 91% | 1013.7 hPa | 0 mm | - | - | - |
| 1777638666 | 9.44° C | 90% | 1013.7 hPa | 0 mm | - | - | - |
* Rain latest hour (hover to see other rain measurements)
** Current wind speed in m/s (hover to see current wind gust speed)